sensor_id;sensor_type;location;lat;lon;timestamp;P1;durP1;ratioP1;P2;durP2;ratioP2
71753;SDS011;59593;51.716;7.016;2023-02-21T00:01:33;42.03;;;29.80;;
71753;SDS011;59593;51.716;7.016;2023-02-21T00:04:18;44.20;;;30.57;;
71753;SDS011;59593;51.716;7.016;2023-02-21T00:07:02;41.37;;;29.70;;
71753;SDS011;59593;51.716;7.016;2023-02-21T00:09:47;42.60;;;29.17;;
71753;SDS011;59593;51.716;7.016;2023-02-21T00:12:31;43.37;;;29.77;;
71753;SDS011;59593;51.716;7.016;2023-02-21T00:15:15;41.20;;;29.07;;
71753;SDS011;59593;51.716;7.016;2023-02-21T00:17:59;41.07;;;28.80;;
71753;SDS011;59593;51.716;7.016;2023-02-21T00:20:43;39.93;;;30.13;;
71753;SDS011;59593;51.716;7.016;2023-02-21T00:23:27;46.17;;;31.00;;
71753;SDS011;59593;51.716;7.016;2023-02-21T00:26:19;44.10;;;30.77;;
71753;SDS011;59593;51.716;7.016;2023-02-21T00:29:05;49.07;;;31.07;;
71753;SDS011;59593;51.716;7.016;2023-02-21T00:31:49;45.43;;;31.37;;
71753;SDS011;59593;51.716;7.016;2023-02-21T00:34:34;46.57;;;32.50;;
71753;SDS011;59593;51.716;7.016;2023-02-21T00:37:18;47.00;;;31.83;;
71753;SDS011;59593;51.716;7.016;2023-02-21T00:40:02;46.87;;;31.57;;
71753;SDS011;59593;51.716;7.016;2023-02-21T00:42:46;43.27;;;31.43;;
71753;SDS011;59593;51.716;7.016;2023-02-21T00:45:31;49.50;;;32.53;;
71753;SDS011;59593;51.716;7.016;2023-02-21T00:48:21;43.87;;;30.73;;
71753;SDS011;59593;51.716;7.016;2023-02-21T00:51:07;43.43;;;32.30;;
71753;SDS011;59593;51.716;7.016;2023-02-21T00:53:51;48.50;;;34.07;;
71753;SDS011;59593;51.716;7.016;2023-02-21T00:56:35;51.40;;;33.43;;
71753;SDS011;59593;51.716;7.016;2023-02-21T00:59:19;50.67;;;34.07;;
71753;SDS011;59593;51.716;7.016;2023-02-21T01:02:03;46.93;;;33.93;;
71753;SDS011;59593;51.716;7.016;2023-02-21T01:04:48;47.63;;;34.20;;
71753;SDS011;59593;51.716;7.016;2023-02-21T01:07:32;50.33;;;35.00;;
71753;SDS011;59593;51.716;7.016;2023-02-21T01:10:16;46.77;;;33.47;;
71753;SDS011;59593;51.716;7.016;2023-02-21T01:13:00;48.53;;;33.17;;
71753;SDS011;59593;51.716;7.016;2023-02-21T01:15:45;48.07;;;34.13;;
71753;SDS011;59593;51.716;7.016;2023-02-21T01:18:29;47.30;;;33.23;;
71753;SDS011;59593;51.716;7.016;2023-02-21T01:21:14;51.17;;;35.13;;
71753;SDS011;59593;51.716;7.016;2023-02-21T01:23:59;51.43;;;34.93;;
71753;SDS011;59593;51.716;7.016;2023-02-21T01:26:43;48.37;;;34.00;;
71753;SDS011;59593;51.716;7.016;2023-02-21T01:29:27;53.33;;;34.70;;
71753;SDS011;59593;51.716;7.016;2023-02-21T01:32:11;55.33;;;35.47;;
71753;SDS011;59593;51.716;7.016;2023-02-21T01:34:56;49.30;;;34.57;;
71753;SDS011;59593;51.716;7.016;2023-02-21T01:37:40;52.07;;;33.77;;
71753;SDS011;59593;51.716;7.016;2023-02-21T01:40:24;47.37;;;33.00;;
71753;SDS011;59593;51.716;7.016;2023-02-21T01:43:16;54.60;;;34.97;;
71753;SDS011;59593;51.716;7.016;2023-02-21T01:46:02;47.27;;;33.37;;
71753;SDS011;59593;51.716;7.016;2023-02-21T01:48:46;52.60;;;34.17;;
71753;SDS011;59593;51.716;7.016;2023-02-21T01:51:36;52.93;;;34.87;;
71753;SDS011;59593;51.716;7.016;2023-02-21T01:54:21;47.80;;;34.37;;
71753;SDS011;59593;51.716;7.016;2023-02-21T01:57:08;49.37;;;33.37;;
71753;SDS011;59593;51.716;7.016;2023-02-21T01:59:55;51.90;;;34.40;;
71753;SDS011;59593;51.716;7.016;2023-02-21T02:05:31;50.20;;;33.80;;
71753;SDS011;59593;51.716;7.016;2023-02-21T02:08:17;52.60;;;34.50;;
71753;SDS011;59593;51.716;7.016;2023-02-21T02:17:33;53.83;;;36.03;;
71753;SDS011;59593;51.716;7.016;2023-02-21T02:31:33;58.93;;;36.57;;
71753;SDS011;59593;51.716;7.016;2023-02-21T02:34:35;58.17;;;37.07;;
71753;SDS011;59593;51.716;7.016;2023-02-21T02:43:02;56.30;;;35.73;;
71753;SDS011;59593;51.716;7.016;2023-02-21T02:45:42;56.73;;;36.70;;
71753;SDS011;59593;51.716;7.016;2023-02-21T02:48:13;59.63;;;36.00;;
71753;SDS011;59593;51.716;7.016;2023-02-21T02:50:46;56.23;;;35.20;;
71753;SDS011;59593;51.716;7.016;2023-02-21T02:53:15;58.03;;;36.10;;
71753;SDS011;59593;51.716;7.016;2023-02-21T02:55:48;58.73;;;36.00;;
71753;SDS011;59593;51.716;7.016;2023-02-21T02:58:18;52.80;;;35.37;;
71753;SDS011;59593;51.716;7.016;2023-02-21T03:00:49;54.70;;;35.63;;
71753;SDS011;59593;51.716;7.016;2023-02-21T03:09:01;62.93;;;38.10;;
71753;SDS011;59593;51.716;7.016;2023-02-21T03:11:28;58.23;;;37.50;;
71753;SDS011;59593;51.716;7.016;2023-02-21T03:14:03;61.43;;;37.30;;
71753;SDS011;59593;51.716;7.016;2023-02-21T03:16:37;61.23;;;37.70;;
71753;SDS011;59593;51.716;7.016;2023-02-21T03:19:53;65.27;;;38.83;;
71753;SDS011;59593;51.716;7.016;2023-02-21T03:22:10;64.17;;;38.47;;
71753;SDS011;59593;51.716;7.016;2023-02-21T03:24:39;71.37;;;41.10;;
71753;SDS011;59593;51.716;7.016;2023-02-21T03:27:08;65.00;;;39.00;;
71753;SDS011;59593;51.716;7.016;2023-02-21T03:29:35;70.67;;;41.43;;
71753;SDS011;59593;51.716;7.016;2023-02-21T03:32:05;64.93;;;40.33;;
71753;SDS011;59593;51.716;7.016;2023-02-21T03:34:35;64.37;;;38.00;;
71753;SDS011;59593;51.716;7.016;2023-02-21T03:37:03;59.33;;;38.20;;
71753;SDS011;59593;51.716;7.016;2023-02-21T03:39:29;70.03;;;39.97;;
71753;SDS011;59593;51.716;7.016;2023-02-21T03:41:55;67.80;;;39.17;;
71753;SDS011;59593;51.716;7.016;2023-02-21T03:44:21;67.60;;;41.50;;
71753;SDS011;59593;51.716;7.016;2023-02-21T03:46:46;68.73;;;41.07;;
71753;SDS011;59593;51.716;7.016;2023-02-21T03:49:12;66.87;;;40.57;;
71753;SDS011;59593;51.716;7.016;2023-02-21T03:51:37;66.10;;;39.73;;
71753;SDS011;59593;51.716;7.016;2023-02-21T03:54:03;66.77;;;39.60;;
71753;SDS011;59593;51.716;7.016;2023-02-21T03:56:29;70.67;;;41.57;;
71753;SDS011;59593;51.716;7.016;2023-02-21T03:58:54;66.43;;;40.70;;
71753;SDS011;59593;51.716;7.016;2023-02-21T04:01:20;70.60;;;40.80;;
71753;SDS011;59593;51.716;7.016;2023-02-21T04:03:45;64.77;;;39.33;;
71753;SDS011;59593;51.716;7.016;2023-02-21T04:06:11;64.00;;;39.20;;
71753;SDS011;59593;51.716;7.016;2023-02-21T04:08:36;68.33;;;40.40;;
71753;SDS011;59593;51.716;7.016;2023-02-21T04:11:02;65.00;;;40.07;;
71753;SDS011;59593;51.716;7.016;2023-02-21T04:13:28;63.20;;;39.30;;
71753;SDS011;59593;51.716;7.016;2023-02-21T04:15:54;64.60;;;38.83;;
71753;SDS011;59593;51.716;7.016;2023-02-21T04:18:19;67.07;;;39.47;;
71753;SDS011;59593;51.716;7.016;2023-02-21T04:20:45;64.57;;;39.73;;
71753;SDS011;59593;51.716;7.016;2023-02-21T04:23:20;67.43;;;39.70;;
71753;SDS011;59593;51.716;7.016;2023-02-21T04:25:46;62.23;;;40.37;;
71753;SDS011;59593;51.716;7.016;2023-02-21T04:28:12;62.87;;;38.63;;
71753;SDS011;59593;51.716;7.016;2023-02-21T04:30:41;65.60;;;41.63;;
71753;SDS011;59593;51.716;7.016;2023-02-21T04:33:07;63.53;;;39.53;;
71753;SDS011;59593;51.716;7.016;2023-02-21T04:35:33;65.60;;;39.17;;
71753;SDS011;59593;51.716;7.016;2023-02-21T04:37:58;62.97;;;39.57;;
71753;SDS011;59593;51.716;7.016;2023-02-21T04:40:24;68.60;;;40.27;;
71753;SDS011;59593;51.716;7.016;2023-02-21T04:42:49;64.50;;;40.30;;
71753;SDS011;59593;51.716;7.016;2023-02-21T04:45:15;65.50;;;38.53;;
71753;SDS011;59593;51.716;7.016;2023-02-21T04:47:40;68.00;;;39.97;;
71753;SDS011;59593;51.716;7.016;2023-02-21T04:50:06;62.80;;;39.43;;
71753;SDS011;59593;51.716;7.016;2023-02-21T04:52:32;64.53;;;39.83;;
71753;SDS011;59593;51.716;7.016;2023-02-21T04:54:57;63.53;;;38.93;;
71753;SDS011;59593;51.716;7.016;2023-02-21T04:57:23;64.20;;;40.17;;
71753;SDS011;59593;51.716;7.016;2023-02-21T04:59:54;61.37;;;38.83;;
71753;SDS011;59593;51.716;7.016;2023-02-21T05:02:24;61.97;;;39.07;;
71753;SDS011;59593;51.716;7.016;2023-02-21T05:04:50;63.27;;;38.57;;
71753;SDS011;59593;51.716;7.016;2023-02-21T05:07:16;63.63;;;37.47;;
71753;SDS011;59593;51.716;7.016;2023-02-21T05:09:42;63.50;;;38.63;;
71753;SDS011;59593;51.716;7.016;2023-02-21T05:12:08;66.00;;;38.37;;
71753;SDS011;59593;51.716;7.016;2023-02-21T05:14:38;67.83;;;40.87;;
71753;SDS011;59593;51.716;7.016;2023-02-21T05:17:04;63.97;;;39.47;;
71753;SDS011;59593;51.716;7.016;2023-02-21T05:19:30;65.23;;;38.60;;
71753;SDS011;59593;51.716;7.016;2023-02-21T05:21:57;71.70;;;40.63;;
71753;SDS011;59593;51.716;7.016;2023-02-21T05:24:24;66.43;;;40.60;;
71753;SDS011;59593;51.716;7.016;2023-02-21T05:26:51;66.60;;;39.80;;
71753;SDS011;59593;51.716;7.016;2023-02-21T05:29:17;68.13;;;40.13;;
71753;SDS011;59593;51.716;7.016;2023-02-21T05:31:43;65.93;;;40.17;;
71753;SDS011;59593;51.716;7.016;2023-02-21T05:34:10;70.27;;;40.23;;
71753;SDS011;59593;51.716;7.016;2023-02-21T05:36:36;66.97;;;38.87;;
71753;SDS011;59593;51.716;7.016;2023-02-21T05:39:02;68.03;;;40.27;;
71753;SDS011;59593;51.716;7.016;2023-02-21T05:41:28;69.33;;;40.87;;
71753;SDS011;59593;51.716;7.016;2023-02-21T05:43:54;67.23;;;39.43;;
71753;SDS011;59593;51.716;7.016;2023-02-21T05:46:27;73.47;;;41.73;;
71753;SDS011;59593;51.716;7.016;2023-02-21T05:48:54;71.07;;;41.43;;
71753;SDS011;59593;51.716;7.016;2023-02-21T05:51:21;70.83;;;41.63;;
71753;SDS011;59593;51.716;7.016;2023-02-21T05:53:47;76.57;;;41.87;;
71753;SDS011;59593;51.716;7.016;2023-02-21T05:56:13;73.37;;;41.63;;
71753;SDS011;59593;51.716;7.016;2023-02-21T05:58:40;73.57;;;42.43;;
71753;SDS011;59593;51.716;7.016;2023-02-21T06:01:05;74.60;;;42.40;;
71753;SDS011;59593;51.716;7.016;2023-02-21T06:03:31;79.27;;;44.03;;
71753;SDS011;59593;51.716;7.016;2023-02-21T06:05:57;79.70;;;41.83;;
71753;SDS011;59593;51.716;7.016;2023-02-21T06:08:23;70.83;;;40.70;;
71753;SDS011;59593;51.716;7.016;2023-02-21T06:10:49;70.47;;;40.07;;
71753;SDS011;59593;51.716;7.016;2023-02-21T06:13:15;76.00;;;43.03;;
71753;SDS011;59593;51.716;7.016;2023-02-21T06:15:40;80.07;;;42.97;;
71753;SDS011;59593;51.716;7.016;2023-02-21T06:18:06;78.73;;;42.13;;
71753;SDS011;59593;51.716;7.016;2023-02-21T06:20:32;81.20;;;43.23;;
71753;SDS011;59593;51.716;7.016;2023-02-21T06:22:57;82.57;;;41.93;;
71753;SDS011;59593;51.716;7.016;2023-02-21T06:25:23;84.80;;;43.90;;
71753;SDS011;59593;51.716;7.016;2023-02-21T06:27:48;85.27;;;46.27;;
71753;SDS011;59593;51.716;7.016;2023-02-21T06:30:14;85.50;;;45.17;;
71753;SDS011;59593;51.716;7.016;2023-02-21T06:32:40;79.87;;;42.67;;
71753;SDS011;59593;51.716;7.016;2023-02-21T06:35:06;80.03;;;42.40;;
71753;SDS011;59593;51.716;7.016;2023-02-21T06:37:33;82.30;;;44.70;;
71753;SDS011;59593;51.716;7.016;2023-02-21T06:39:58;76.87;;;42.63;;
71753;SDS011;59593;51.716;7.016;2023-02-21T06:42:24;81.37;;;42.70;;
71753;SDS011;59593;51.716;7.016;2023-02-21T06:44:50;85.13;;;42.13;;
71753;SDS011;59593;51.716;7.016;2023-02-21T06:47:18;77.00;;;40.80;;
71753;SDS011;59593;51.716;7.016;2023-02-21T06:49:46;72.90;;;41.07;;
71753;SDS011;59593;51.716;7.016;2023-02-21T06:52:12;86.03;;;45.27;;
71753;SDS011;59593;51.716;7.016;2023-02-21T06:54:38;81.87;;;42.47;;
71753;SDS011;59593;51.716;7.016;2023-02-21T06:57:04;80.73;;;43.13;;
71753;SDS011;59593;51.716;7.016;2023-02-21T06:59:30;85.13;;;43.13;;
71753;SDS011;59593;51.716;7.016;2023-02-21T07:01:55;86.80;;;44.27;;
71753;SDS011;59593;51.716;7.016;2023-02-21T07:04:21;84.10;;;44.10;;
71753;SDS011;59593;51.716;7.016;2023-02-21T07:06:48;80.80;;;41.50;;
71753;SDS011;59593;51.716;7.016;2023-02-21T07:09:14;86.00;;;43.87;;
71753;SDS011;59593;51.716;7.016;2023-02-21T07:11:40;85.43;;;42.23;;
71753;SDS011;59593;51.716;7.016;2023-02-21T07:14:05;83.33;;;42.40;;
71753;SDS011;59593;51.716;7.016;2023-02-21T07:16:32;87.67;;;41.93;;
71753;SDS011;59593;51.716;7.016;2023-02-21T07:19:06;91.40;;;44.40;;
71753;SDS011;59593;51.716;7.016;2023-02-21T07:21:32;87.37;;;44.77;;
71753;SDS011;59593;51.716;7.016;2023-02-21T07:23:58;87.10;;;41.17;;
71753;SDS011;59593;51.716;7.016;2023-02-21T07:26:23;82.83;;;40.63;;
71753;SDS011;59593;51.716;7.016;2023-02-21T07:28:49;80.73;;;41.03;;
71753;SDS011;59593;51.716;7.016;2023-02-21T07:31:14;86.13;;;41.27;;
71753;SDS011;59593;51.716;7.016;2023-02-21T07:33:41;80.13;;;40.60;;
71753;SDS011;59593;51.716;7.016;2023-02-21T07:36:07;85.30;;;40.17;;
71753;SDS011;59593;51.716;7.016;2023-02-21T07:38:32;85.43;;;39.50;;
71753;SDS011;59593;51.716;7.016;2023-02-21T07:40:59;87.43;;;41.17;;
71753;SDS011;59593;51.716;7.016;2023-02-21T07:43:26;85.43;;;40.50;;
71753;SDS011;59593;51.716;7.016;2023-02-21T07:45:53;87.90;;;41.10;;
71753;SDS011;59593;51.716;7.016;2023-02-21T07:48:18;87.43;;;41.30;;
71753;SDS011;59593;51.716;7.016;2023-02-21T07:50:44;86.33;;;40.93;;
71753;SDS011;59593;51.716;7.016;2023-02-21T07:53:10;81.40;;;38.87;;
71753;SDS011;59593;51.716;7.016;2023-02-21T07:55:37;84.50;;;40.77;;
71753;SDS011;59593;51.716;7.016;2023-02-21T07:58:02;82.80;;;39.20;;
71753;SDS011;59593;51.716;7.016;2023-02-21T08:00:28;86.70;;;41.13;;
71753;SDS011;59593;51.716;7.016;2023-02-21T08:02:54;84.40;;;39.47;;
71753;SDS011;59593;51.716;7.016;2023-02-21T08:05:21;85.17;;;39.93;;
71753;SDS011;59593;51.716;7.016;2023-02-21T08:07:47;86.83;;;40.33;;
71753;SDS011;59593;51.716;7.016;2023-02-21T08:10:17;86.63;;;38.03;;
71753;SDS011;59593;51.716;7.016;2023-02-21T08:12:45;84.43;;;37.57;;
71753;SDS011;59593;51.716;7.016;2023-02-21T08:15:11;89.03;;;37.90;;
71753;SDS011;59593;51.716;7.016;2023-02-21T08:17:36;92.60;;;40.10;;
71753;SDS011;59593;51.716;7.016;2023-02-21T08:20:02;87.53;;;38.10;;
71753;SDS011;59593;51.716;7.016;2023-02-21T08:22:29;87.57;;;37.27;;
71753;SDS011;59593;51.716;7.016;2023-02-21T08:24:55;86.77;;;38.63;;
71753;SDS011;59593;51.716;7.016;2023-02-21T08:27:20;83.67;;;37.00;;
71753;SDS011;59593;51.716;7.016;2023-02-21T08:29:48;86.77;;;38.47;;
71753;SDS011;59593;51.716;7.016;2023-02-21T08:32:14;86.70;;;37.07;;
71753;SDS011;59593;51.716;7.016;2023-02-21T08:34:43;85.30;;;37.17;;
71753;SDS011;59593;51.716;7.016;2023-02-21T08:37:09;86.80;;;36.57;;
71753;SDS011;59593;51.716;7.016;2023-02-21T08:39:43;88.97;;;38.03;;
71753;SDS011;59593;51.716;7.016;2023-02-21T08:42:10;84.90;;;36.30;;
71753;SDS011;59593;51.716;7.016;2023-02-21T08:44:36;80.43;;;35.90;;
71753;SDS011;59593;51.716;7.016;2023-02-21T08:47:02;87.80;;;37.37;;
71753;SDS011;59593;51.716;7.016;2023-02-21T08:49:27;91.97;;;38.73;;
71753;SDS011;59593;51.716;7.016;2023-02-21T08:51:53;87.13;;;38.30;;
71753;SDS011;59593;51.716;7.016;2023-02-21T08:54:19;83.37;;;38.10;;
71753;SDS011;59593;51.716;7.016;2023-02-21T08:56:44;71.20;;;35.57;;
71753;SDS011;59593;51.716;7.016;2023-02-21T08:59:10;82.47;;;37.00;;
71753;SDS011;59593;51.716;7.016;2023-02-21T09:01:36;88.77;;;38.27;;
71753;SDS011;59593;51.716;7.016;2023-02-21T09:04:03;81.40;;;36.60;;
71753;SDS011;59593;51.716;7.016;2023-02-21T09:06:29;79.87;;;37.60;;
71753;SDS011;59593;51.716;7.016;2023-02-21T09:08:55;81.83;;;36.40;;
71753;SDS011;59593;51.716;7.016;2023-02-21T09:11:21;79.40;;;35.77;;
71753;SDS011;59593;51.716;7.016;2023-02-21T09:13:46;74.20;;;36.10;;
71753;SDS011;59593;51.716;7.016;2023-02-21T09:16:12;67.47;;;32.30;;
71753;SDS011;59593;51.716;7.016;2023-02-21T09:18:37;64.43;;;32.27;;
71753;SDS011;59593;51.716;7.016;2023-02-21T09:21:04;80.73;;;37.47;;
71753;SDS011;59593;51.716;7.016;2023-02-21T09:23:30;80.87;;;37.70;;
71753;SDS011;59593;51.716;7.016;2023-02-21T09:25:56;70.57;;;35.70;;
71753;SDS011;59593;51.716;7.016;2023-02-21T09:28:22;62.87;;;32.90;;
71753;SDS011;59593;51.716;7.016;2023-02-21T09:30:48;71.93;;;35.10;;
71753;SDS011;59593;51.716;7.016;2023-02-21T09:33:15;64.53;;;32.73;;
71753;SDS011;59593;51.716;7.016;2023-02-21T09:35:40;63.20;;;32.07;;
71753;SDS011;59593;51.716;7.016;2023-02-21T09:38:06;63.97;;;32.07;;
71753;SDS011;59593;51.716;7.016;2023-02-21T09:40:35;67.93;;;34.97;;
71753;SDS011;59593;51.716;7.016;2023-02-21T09:43:05;55.07;;;29.33;;
71753;SDS011;59593;51.716;7.016;2023-02-21T09:45:39;55.00;;;29.93;;
71753;SDS011;59593;51.716;7.016;2023-02-21T09:48:12;55.93;;;29.07;;
71753;SDS011;59593;51.716;7.016;2023-02-21T09:50:53;51.13;;;27.93;;
71753;SDS011;59593;51.716;7.016;2023-02-21T09:53:25;54.13;;;28.10;;
71753;SDS011;59593;51.716;7.016;2023-02-21T09:55:54;50.60;;;27.17;;
71753;SDS011;59593;51.716;7.016;2023-02-21T09:58:25;49.43;;;26.37;;
71753;SDS011;59593;51.716;7.016;2023-02-21T10:00:50;49.63;;;26.83;;
71753;SDS011;59593;51.716;7.016;2023-02-21T10:06:08;42.57;;;24.27;;
71753;SDS011;59593;51.716;7.016;2023-02-21T10:09:02;44.90;;;24.83;;
71753;SDS011;59593;51.716;7.016;2023-02-21T10:14:48;36.60;;;21.50;;
71753;SDS011;59593;51.716;7.016;2023-02-21T10:17:44;35.73;;;19.53;;
71753;SDS011;59593;51.716;7.016;2023-02-21T10:20:25;38.40;;;21.87;;
71753;SDS011;59593;51.716;7.016;2023-02-21T10:22:57;37.83;;;21.57;;
71753;SDS011;59593;51.716;7.016;2023-02-21T10:25:26;38.60;;;22.13;;
71753;SDS011;59593;51.716;7.016;2023-02-21T10:27:54;35.90;;;20.70;;
71753;SDS011;59593;51.716;7.016;2023-02-21T10:30:26;37.43;;;21.27;;
71753;SDS011;59593;51.716;7.016;2023-02-21T10:33:01;35.50;;;20.03;;
71753;SDS011;59593;51.716;7.016;2023-02-21T10:35:31;31.43;;;19.50;;
71753;SDS011;59593;51.716;7.016;2023-02-21T10:37:58;31.53;;;18.43;;
71753;SDS011;59593;51.716;7.016;2023-02-21T10:40:33;29.27;;;18.60;;
71753;SDS011;59593;51.716;7.016;2023-02-21T10:43:22;34.63;;;21.47;;
71753;SDS011;59593;51.716;7.016;2023-02-21T10:45:52;33.27;;;18.53;;
71753;SDS011;59593;51.716;7.016;2023-02-21T10:48:30;32.17;;;19.70;;
71753;SDS011;59593;51.716;7.016;2023-02-21T10:53:40;26.80;;;17.80;;
71753;SDS011;59593;51.716;7.016;2023-02-21T10:58:43;27.03;;;18.03;;
71753;SDS011;59593;51.716;7.016;2023-02-21T11:03:59;24.47;;;16.47;;
71753;SDS011;59593;51.716;7.016;2023-02-21T11:06:35;26.37;;;16.90;;
71753;SDS011;59593;51.716;7.016;2023-02-21T11:09:48;28.50;;;17.63;;
71753;SDS011;59593;51.716;7.016;2023-02-21T11:12:01;29.17;;;17.40;;
71753;SDS011;59593;51.716;7.016;2023-02-21T11:14:27;29.03;;;18.20;;
71753;SDS011;59593;51.716;7.016;2023-02-21T11:19:49;28.60;;;18.43;;
71753;SDS011;59593;51.716;7.016;2023-02-21T11:22:29;27.63;;;17.67;;
71753;SDS011;59593;51.716;7.016;2023-02-21T11:33:23;26.73;;;16.67;;
71753;SDS011;59593;51.716;7.016;2023-02-21T11:35:49;26.43;;;16.20;;
71753;SDS011;59593;51.716;7.016;2023-02-21T11:38:34;24.53;;;16.13;;
71753;SDS011;59593;51.716;7.016;2023-02-21T11:41:03;24.67;;;15.90;;
71753;SDS011;59593;51.716;7.016;2023-02-21T11:43:53;22.23;;;14.70;;
71753;SDS011;59593;51.716;7.016;2023-02-21T11:52:00;20.50;;;14.70;;
71753;SDS011;59593;51.716;7.016;2023-02-21T11:54:29;22.83;;;15.60;;
71753;SDS011;59593;51.716;7.016;2023-02-21T12:02:53;22.33;;;15.27;;
71753;SDS011;59593;51.716;7.016;2023-02-21T12:08:12;22.27;;;14.10;;
71753;SDS011;59593;51.716;7.016;2023-02-21T12:13:36;18.80;;;13.33;;
71753;SDS011;59593;51.716;7.016;2023-02-21T12:21:49;23.63;;;17.13;;
71753;SDS011;59593;51.716;7.016;2023-02-21T12:30:03;19.47;;;13.40;;
71753;SDS011;59593;51.716;7.016;2023-02-21T12:42:05;18.97;;;13.47;;
71753;SDS011;59593;51.716;7.016;2023-02-21T12:46:49;21.33;;;13.87;;
71753;SDS011;59593;51.716;7.016;2023-02-21T12:52:18;17.93;;;13.00;;
71753;SDS011;59593;51.716;7.016;2023-02-21T12:55:06;20.33;;;13.90;;
71753;SDS011;59593;51.716;7.016;2023-02-21T13:00:25;17.93;;;13.57;;
71753;SDS011;59593;51.716;7.016;2023-02-21T13:05:47;20.30;;;15.03;;
71753;SDS011;59593;51.716;7.016;2023-02-21T13:08:23;22.67;;;14.63;;
71753;SDS011;59593;51.716;7.016;2023-02-21T13:13:26;18.13;;;13.80;;
71753;SDS011;59593;51.716;7.016;2023-02-21T13:15:56;18.83;;;13.87;;
71753;SDS011;59593;51.716;7.016;2023-02-21T13:18:27;16.80;;;12.93;;
71753;SDS011;59593;51.716;7.016;2023-02-21T13:23:58;17.07;;;11.43;;
71753;SDS011;59593;51.716;7.016;2023-02-21T13:30:41;15.83;;;11.67;;
71753;SDS011;59593;51.716;7.016;2023-02-21T13:33:02;14.57;;;10.70;;
71753;SDS011;59593;51.716;7.016;2023-02-21T13:35:32;15.30;;;11.40;;
71753;SDS011;59593;51.716;7.016;2023-02-21T13:38:00;16.20;;;11.73;;
71753;SDS011;59593;51.716;7.016;2023-02-21T13:40:32;14.67;;;11.10;;
71753;SDS011;59593;51.716;7.016;2023-02-21T13:43:17;16.90;;;11.57;;
71753;SDS011;59593;51.716;7.016;2023-02-21T13:45:49;15.43;;;11.43;;
71753;SDS011;59593;51.716;7.016;2023-02-21T13:48:18;15.63;;;10.97;;
71753;SDS011;59593;51.716;7.016;2023-02-21T13:50:54;14.77;;;11.40;;
71753;SDS011;59593;51.716;7.016;2023-02-21T13:53:30;14.10;;;10.80;;
71753;SDS011;59593;51.716;7.016;2023-02-21T13:56:19;17.20;;;11.30;;
71753;SDS011;59593;51.716;7.016;2023-02-21T14:01:50;14.73;;;10.83;;
71753;SDS011;59593;51.716;7.016;2023-02-21T14:07:12;14.33;;;10.40;;
71753;SDS011;59593;51.716;7.016;2023-02-21T14:09:39;14.57;;;10.83;;
71753;SDS011;59593;51.716;7.016;2023-02-21T14:12:06;15.53;;;10.83;;
71753;SDS011;59593;51.716;7.016;2023-02-21T14:14:35;14.03;;;11.27;;
71753;SDS011;59593;51.716;7.016;2023-02-21T14:17:07;14.97;;;10.90;;
71753;SDS011;59593;51.716;7.016;2023-02-21T14:19:36;14.10;;;10.93;;
71753;SDS011;59593;51.716;7.016;2023-02-21T14:22:09;16.97;;;10.83;;
71753;SDS011;59593;51.716;7.016;2023-02-21T14:24:41;14.17;;;10.70;;
71753;SDS011;59593;51.716;7.016;2023-02-21T14:29:41;14.20;;;10.67;;
71753;SDS011;59593;51.716;7.016;2023-02-21T14:37:14;16.40;;;10.17;;
71753;SDS011;59593;51.716;7.016;2023-02-21T14:39:48;13.73;;;10.60;;
71753;SDS011;59593;51.716;7.016;2023-02-21T14:59:13;13.87;;;11.00;;
71753;SDS011;59593;51.716;7.016;2023-02-21T15:07:57;14.97;;;11.03;;
71753;SDS011;59593;51.716;7.016;2023-02-21T15:10:31;16.57;;;11.90;;
71753;SDS011;59593;51.716;7.016;2023-02-21T15:13:03;16.77;;;11.40;;
71753;SDS011;59593;51.716;7.016;2023-02-21T15:15:34;15.43;;;11.47;;
71753;SDS011;59593;51.716;7.016;2023-02-21T15:18:09;16.57;;;11.40;;
71753;SDS011;59593;51.716;7.016;2023-02-21T15:20:47;15.27;;;11.30;;
71753;SDS011;59593;51.716;7.016;2023-02-21T15:23:26;15.20;;;11.27;;
71753;SDS011;59593;51.716;7.016;2023-02-21T15:25:54;14.87;;;11.40;;
71753;SDS011;59593;51.716;7.016;2023-02-21T15:28:28;16.53;;;12.33;;
71753;SDS011;59593;51.716;7.016;2023-02-21T15:33:23;22.57;;;16.27;;
71753;SDS011;59593;51.716;7.016;2023-02-21T15:35:52;24.03;;;14.83;;
71753;SDS011;59593;51.716;7.016;2023-02-21T15:38:22;21.03;;;15.47;;
71753;SDS011;59593;51.716;7.016;2023-02-21T15:41:14;22.47;;;16.30;;
71753;SDS011;59593;51.716;7.016;2023-02-21T15:43:49;23.03;;;17.27;;
71753;SDS011;59593;51.716;7.016;2023-02-21T15:46:23;24.90;;;17.77;;
71753;SDS011;59593;51.716;7.016;2023-02-21T15:48:53;24.07;;;18.10;;
71753;SDS011;59593;51.716;7.016;2023-02-21T15:51:23;25.63;;;18.37;;
71753;SDS011;59593;51.716;7.016;2023-02-21T15:54:09;31.17;;;21.20;;
71753;SDS011;59593;51.716;7.016;2023-02-21T15:57:01;34.40;;;22.73;;
71753;SDS011;59593;51.716;7.016;2023-02-21T15:59:30;43.13;;;27.63;;
71753;SDS011;59593;51.716;7.016;2023-02-21T16:04:51;45.30;;;32.23;;
71753;SDS011;59593;51.716;7.016;2023-02-21T16:07:33;49.97;;;32.10;;
71753;SDS011;59593;51.716;7.016;2023-02-21T16:10:08;45.17;;;29.83;;
71753;SDS011;59593;51.716;7.016;2023-02-21T16:12:38;48.30;;;30.10;;
71753;SDS011;59593;51.716;7.016;2023-02-21T16:17:42;42.27;;;30.20;;
71753;SDS011;59593;51.716;7.016;2023-02-21T16:20:14;44.60;;;30.20;;
71753;SDS011;59593;51.716;7.016;2023-02-21T16:28:24;46.07;;;33.30;;
71753;SDS011;59593;51.716;7.016;2023-02-21T16:30:50;41.33;;;28.43;;
71753;SDS011;59593;51.716;7.016;2023-02-21T16:33:16;38.50;;;28.07;;
71753;SDS011;59593;51.716;7.016;2023-02-21T16:35:42;40.77;;;27.67;;
71753;SDS011;59593;51.716;7.016;2023-02-21T16:38:09;33.93;;;24.53;;
71753;SDS011;59593;51.716;7.016;2023-02-21T16:40:39;32.53;;;23.27;;
71753;SDS011;59593;51.716;7.016;2023-02-21T16:43:05;34.80;;;23.47;;
71753;SDS011;59593;51.716;7.016;2023-02-21T16:45:31;34.63;;;23.13;;
71753;SDS011;59593;51.716;7.016;2023-02-21T16:47:58;32.00;;;22.07;;
71753;SDS011;59593;51.716;7.016;2023-02-21T16:50:32;35.23;;;23.67;;
71753;SDS011;59593;51.716;7.016;2023-02-21T16:52:59;37.07;;;24.80;;
71753;SDS011;59593;51.716;7.016;2023-02-21T16:55:26;35.53;;;24.70;;
71753;SDS011;59593;51.716;7.016;2023-02-21T16:57:54;41.37;;;27.27;;
71753;SDS011;59593;51.716;7.016;2023-02-21T17:00:25;48.20;;;29.93;;
71753;SDS011;59593;51.716;7.016;2023-02-21T17:02:51;47.17;;;29.50;;
71753;SDS011;59593;51.716;7.016;2023-02-21T17:05:17;43.20;;;28.93;;
71753;SDS011;59593;51.716;7.016;2023-02-21T17:07:49;45.03;;;29.03;;
71753;SDS011;59593;51.716;7.016;2023-02-21T17:10:16;45.33;;;29.67;;
71753;SDS011;59593;51.716;7.016;2023-02-21T17:12:46;54.90;;;35.03;;
71753;SDS011;59593;51.716;7.016;2023-02-21T17:15:11;49.23;;;33.63;;
71753;SDS011;59593;51.716;7.016;2023-02-21T17:17:38;59.97;;;36.00;;
71753;SDS011;59593;51.716;7.016;2023-02-21T17:20:04;45.10;;;28.60;;
71753;SDS011;59593;51.716;7.016;2023-02-21T17:22:39;46.47;;;30.13;;
71753;SDS011;59593;51.716;7.016;2023-02-21T17:25:05;49.33;;;30.73;;
71753;SDS011;59593;51.716;7.016;2023-02-21T17:27:30;47.07;;;31.13;;
71753;SDS011;59593;51.716;7.016;2023-02-21T17:29:56;51.90;;;32.37;;
71753;SDS011;59593;51.716;7.016;2023-02-21T17:32:22;48.80;;;32.73;;